KMKY

Details ICAO KMKY (MRK)
Name Marco Island
Region United States
Timezone America/New_York (UTC-4.0)
Plans Departing 15
Arriving 10
Stats Elevation 5 ft / 2 m (AMSL)
Location 25.995040° -81.672529°
Runways 1
Magnetic Variation 5.858° W
Sunrise 2018-05-25 10:37:56 UTC / 2018-05-25 06:37:56 Local
Sunset 2018-05-26 00:12:14 UTC / 2018-05-25 20:12:14 Local
Advertisement - Login to hide

Runways

ID Width Length Bearing (true) Bearing (mag) Surface Threshold Offset Overrun Length
17 100 ft / 30 m 5,019 ft / 1,530 m 167.77° 173.63° Asphalt 0 ft / 0 m 0 ft / 0 m
35 100 ft / 30 m 5,019 ft / 1,530 m 347.77° 353.63° Asphalt 0 ft / 0 m 0 ft / 0 m

Map

Weather


0- 5 10 15 20 25 30 35+ Temperature / ° C

Clouds and Precipitation
Forecast for 2018-05-25 18:00 UTC. Updated 2 hours ago

Ground ~20,000 ft ~40,000 ft Winds

METAR

KMKY 251837Z AUTO 14013KT 1 3/4SM +RA BR SCT025 BKN032 OVC049 23/22 A3000 RMK AO2 PK WND 09026/1813 WSHFT 1823 RAB02 P0061

TAF

Not found

Frequencies

Recorded 120.07 MHz AWOS 3
Clearance 120.80 MHz CLNC DEL
Unicom 122.80 MHz CTAF/UNICOM
Approach 119.75 MHz FORT MYERS APP/DEP
Warning: Do not use this data for real-world aviation or navigation. No guarantee of current accuracy is given.